sensor_id;sensor_type;location;lat;lon;timestamp;pressure;altitude;pressure_sealevel;temperature;humidity
6534;BME280;3300;42.698;23.332;2023-09-19T00:00:19;46736.75;;;28.23;44.06
6534;BME280;3300;42.698;23.332;2023-09-19T00:02:53;46721.09;;;28.23;44.17
6534;BME280;3300;42.698;23.332;2023-09-19T00:05:20;46715.22;;;28.23;44.31
6534;BME280;3300;42.698;23.332;2023-09-19T00:07:50;46709.34;;;28.23;44.31
6534;BME280;3300;42.698;23.332;2023-09-19T00:10:19;46719.13;;;28.23;44.31
6534;BME280;3300;42.698;23.332;2023-09-19T00:12:47;46699.56;;;28.23;44.32
6534;BME280;3300;42.698;23.332;2023-09-19T00:15:14;46732.81;;;28.23;44.18
6534;BME280;3300;42.698;23.332;2023-09-19T00:17:43;46711.31;;;28.23;44.36
6534;BME280;3300;42.698;23.332;2023-09-19T00:20:11;46713.25;;;28.23;44.23
6534;BME280;3300;42.698;23.332;2023-09-19T00:22:40;46713.25;;;28.23;44.22
6534;BME280;3300;42.698;23.332;2023-09-19T00:25:08;46701.50;;;28.23;44.25
6534;BME280;3300;42.698;23.332;2023-09-19T00:27:37;46693.69;;;28.23;44.19
6534;BME280;3300;42.698;23.332;2023-09-19T00:30:08;46707.38;;;28.23;44.20
6534;BME280;3300;42.698;23.332;2023-09-19T00:32:40;46715.22;;;28.23;44.34
6534;BME280;3300;42.698;23.332;2023-09-19T00:35:07;46715.22;;;28.23;44.34
6534;BME280;3300;42.698;23.332;2023-09-19T00:37:37;46693.69;;;28.23;44.52
6534;BME280;3300;42.698;23.332;2023-09-19T00:40:06;46713.25;;;28.23;44.34
6534;BME280;3300;42.698;23.332;2023-09-19T00:42:37;46717.16;;;28.23;44.37
6534;BME280;3300;42.698;23.332;2023-09-19T00:45:05;46713.25;;;28.23;44.31
6534;BME280;3300;42.698;23.332;2023-09-19T00:47:35;46728.91;;;28.23;44.08
6534;BME280;3300;42.698;23.332;2023-09-19T00:50:03;46705.44;;;28.23;44.22
6534;BME280;3300;42.698;23.332;2023-09-19T00:52:33;46697.59;;;28.23;44.18
6534;BME280;3300;42.698;23.332;2023-09-19T00:55:04;46705.44;;;28.23;44.28
6534;BME280;3300;42.698;23.332;2023-09-19T00:57:32;46691.72;;;28.23;44.36
6534;BME280;3300;42.698;23.332;2023-09-19T01:00:00;46697.59;;;28.23;44.25
6534;BME280;3300;42.698;23.332;2023-09-19T01:02:31;46713.25;;;28.23;44.11
6534;BME280;3300;42.698;23.332;2023-09-19T01:04:58;46717.16;;;28.23;44.25
6534;BME280;3300;42.698;23.332;2023-09-19T01:07:25;46725.00;;;28.23;44.25
6534;BME280;3300;42.698;23.332;2023-09-19T01:09:52;46721.09;;;28.23;44.10
6534;BME280;3300;42.698;23.332;2023-09-19T01:12:33;46725.00;;;28.23;44.14
6534;BME280;3300;42.698;23.332;2023-09-19T01:15:10;46705.44;;;28.23;44.35
6534;BME280;3300;42.698;23.332;2023-09-19T01:17:46;46699.56;;;28.23;44.36
6534;BME280;3300;42.698;23.332;2023-09-19T01:20:25;46713.25;;;28.23;44.38
6534;BME280;3300;42.698;23.332;2023-09-19T01:23:05;46723.03;;;28.23;44.34
6534;BME280;3300;42.698;23.332;2023-09-19T01:26:10;46709.34;;;28.23;44.22
6534;BME280;3300;42.698;23.332;2023-09-19T01:29:05;46723.03;;;28.23;44.40
6534;BME280;3300;42.698;23.332;2023-09-19T01:31:42;46732.81;;;28.23;44.18
6534;BME280;3300;42.698;23.332;2023-09-19T01:34:11;46713.25;;;28.23;44.24
6534;BME280;3300;42.698;23.332;2023-09-19T01:36:38;46707.38;;;28.23;44.39
6534;BME280;3300;42.698;23.332;2023-09-19T01:39:06;46717.16;;;28.23;44.18
6534;BME280;3300;42.698;23.332;2023-09-19T01:41:57;46681.94;;;28.23;44.26
6534;BME280;3300;42.698;23.332;2023-09-19T01:44:42;46713.25;;;28.23;44.35
6534;BME280;3300;42.698;23.332;2023-09-19T01:47:18;46707.38;;;28.23;44.29
6534;BME280;3300;42.698;23.332;2023-09-19T01:49:54;46705.44;;;28.23;44.22
6534;BME280;3300;42.698;23.332;2023-09-19T01:52:28;46709.34;;;28.23;44.29
6534;BME280;3300;42.698;23.332;2023-09-19T01:55:01;46697.59;;;28.23;44.33
6534;BME280;3300;42.698;23.332;2023-09-19T01:57:35;46681.94;;;28.23;44.25
6534;BME280;3300;42.698;23.332;2023-09-19T02:00:07;46717.16;;;28.23;44.13
6534;BME280;3300;42.698;23.332;2023-09-19T02:02:37;46711.31;;;28.23;44.20
6534;BME280;3300;42.698;23.332;2023-09-19T02:05:05;46689.78;;;28.23;44.22
6534;BME280;3300;42.698;23.332;2023-09-19T02:07:32;46728.91;;;28.23;44.29
6534;BME280;3300;42.698;23.332;2023-09-19T02:10:01;46689.78;;;28.23;44.33
6534;BME280;3300;42.698;23.332;2023-09-19T02:12:29;46697.59;;;28.23;44.28
6534;BME280;3300;42.698;23.332;2023-09-19T02:14:58;46732.81;;;28.23;44.16
6534;BME280;3300;42.698;23.332;2023-09-19T02:17:25;46709.34;;;28.23;44.22
6534;BME280;3300;42.698;23.332;2023-09-19T02:19:53;46687.81;;;28.23;44.26
6534;BME280;3300;42.698;23.332;2023-09-19T02:22:20;46723.03;;;28.23;44.24
6534;BME280;3300;42.698;23.332;2023-09-19T02:24:48;46705.44;;;28.23;44.15
6534;BME280;3300;42.698;23.332;2023-09-19T02:27:16;46725.00;;;28.23;44.22
6534;BME280;3300;42.698;23.332;2023-09-19T02:29:43;46707.38;;;28.23;44.25
6534;BME280;3300;42.698;23.332;2023-09-19T02:32:10;46709.34;;;28.23;44.31
6534;BME280;3300;42.698;23.332;2023-09-19T02:34:37;46725.00;;;28.23;44.23
6534;BME280;3300;42.698;23.332;2023-09-19T02:37:06;46709.34;;;28.23;44.35
6534;BME280;3300;42.698;23.332;2023-09-19T02:39:34;46699.56;;;28.23;44.27
6534;BME280;3300;42.698;23.332;2023-09-19T02:42:00;46728.91;;;28.23;44.36
6534;BME280;3300;42.698;23.332;2023-09-19T02:44:29;46719.13;;;28.23;44.23
6534;BME280;3300;42.698;23.332;2023-09-19T02:46:56;46689.78;;;28.23;44.18
6534;BME280;3300;42.698;23.332;2023-09-19T02:49:24;46732.81;;;28.23;44.27
6534;BME280;3300;42.698;23.332;2023-09-19T02:51:51;46721.09;;;28.23;44.21
6534;BME280;3300;42.698;23.332;2023-09-19T02:54:19;46705.44;;;28.23;44.29
6534;BME280;3300;42.698;23.332;2023-09-19T02:56:47;46703.47;;;28.23;44.15
6534;BME280;3300;42.698;23.332;2023-09-19T02:59:14;46707.38;;;28.23;44.41
6534;BME280;3300;42.698;23.332;2023-09-19T03:01:43;46689.78;;;28.23;44.27
6534;BME280;3300;42.698;23.332;2023-09-19T03:04:13;46713.25;;;28.23;44.15
6534;BME280;3300;42.698;23.332;2023-09-19T03:06:42;46691.72;;;28.23;44.25
6534;BME280;3300;42.698;23.332;2023-09-19T03:09:10;46736.75;;;28.23;44.24
6534;BME280;3300;42.698;23.332;2023-09-19T03:11:38;46674.13;;;28.23;44.20
6534;BME280;3300;42.698;23.332;2023-09-19T03:14:05;46699.56;;;28.23;44.27
6534;BME280;3300;42.698;23.332;2023-09-19T03:16:32;46707.38;;;28.23;44.27
6534;BME280;3300;42.698;23.332;2023-09-19T03:18:59;46701.50;;;28.23;43.99
6534;BME280;3300;42.698;23.332;2023-09-19T03:21:26;46711.31;;;28.23;44.21
6534;BME280;3300;42.698;23.332;2023-09-19T03:23:55;46701.50;;;28.23;44.13
6534;BME280;3300;42.698;23.332;2023-09-19T03:26:21;46703.47;;;28.23;44.11
6534;BME280;3300;42.698;23.332;2023-09-19T03:28:50;46725.00;;;28.23;44.20
6534;BME280;3300;42.698;23.332;2023-09-19T03:31:16;46719.13;;;28.23;44.40
6534;BME280;3300;42.698;23.332;2023-09-19T03:33:43;46701.50;;;28.23;44.23
6534;BME280;3300;42.698;23.332;2023-09-19T03:36:10;46728.91;;;28.23;44.26
6534;BME280;3300;42.698;23.332;2023-09-19T03:38:39;46723.03;;;28.23;44.02
6534;BME280;3300;42.698;23.332;2023-09-19T03:41:06;46701.50;;;28.23;44.15
6534;BME280;3300;42.698;23.332;2023-09-19T03:43:33;46693.69;;;28.23;44.27
6534;BME280;3300;42.698;23.332;2023-09-19T03:46:02;46715.22;;;28.23;44.22
6534;BME280;3300;42.698;23.332;2023-09-19T03:48:30;46713.25;;;28.23;44.25
6534;BME280;3300;42.698;23.332;2023-09-19T03:50:57;46697.59;;;28.23;44.22
6534;BME280;3300;42.698;23.332;2023-09-19T03:53:24;46732.81;;;28.23;44.18
6534;BME280;3300;42.698;23.332;2023-09-19T03:55:51;46713.25;;;28.23;44.25
6534;BME280;3300;42.698;23.332;2023-09-19T03:58:18;46717.16;;;28.23;44.11
6534;BME280;3300;42.698;23.332;2023-09-19T04:00:46;46701.50;;;28.23;44.15
6534;BME280;3300;42.698;23.332;2023-09-19T04:03:14;46703.47;;;28.23;44.25
6534;BME280;3300;42.698;23.332;2023-09-19T04:05:46;46709.34;;;28.23;43.87
6534;BME280;3300;42.698;23.332;2023-09-19T04:08:13;46732.81;;;28.23;44.18
6534;BME280;3300;42.698;23.332;2023-09-19T04:10:42;46707.38;;;28.23;44.20
6534;BME280;3300;42.698;23.332;2023-09-19T04:13:09;46693.69;;;28.23;44.10
6534;BME280;3300;42.698;23.332;2023-09-19T04:15:35;46709.34;;;28.23;44.20
6534;BME280;3300;42.698;23.332;2023-09-19T04:18:03;46734.78;;;28.23;44.21
6534;BME280;3300;42.698;23.332;2023-09-19T04:20:31;46723.03;;;28.23;44.20
6534;BME280;3300;42.698;23.332;2023-09-19T04:22:58;46678.03;;;28.23;44.33
6534;BME280;3300;42.698;23.332;2023-09-19T04:25:26;46725.00;;;28.23;44.26
6534;BME280;3300;42.698;23.332;2023-09-19T04:27:53;46725.00;;;28.23;44.17
6534;BME280;3300;42.698;23.332;2023-09-19T04:30:20;46699.56;;;28.23;44.20
6534;BME280;3300;42.698;23.332;2023-09-19T04:32:47;46711.31;;;28.23;44.21
6534;BME280;3300;42.698;23.332;2023-09-19T04:35:16;46693.69;;;28.23;44.13
6534;BME280;3300;42.698;23.332;2023-09-19T04:37:44;46709.34;;;28.23;44.15
6534;BME280;3300;42.698;23.332;2023-09-19T04:40:12;46709.34;;;28.23;44.22
6534;BME280;3300;42.698;23.332;2023-09-19T04:42:42;46701.50;;;28.23;44.24
6534;BME280;3300;42.698;23.332;2023-09-19T04:45:10;46732.81;;;28.23;44.01
6534;BME280;3300;42.698;23.332;2023-09-19T04:47:37;46725.00;;;28.23;44.19
6534;BME280;3300;42.698;23.332;2023-09-19T04:50:07;46711.31;;;28.23;44.13
6534;BME280;3300;42.698;23.332;2023-09-19T04:52:38;46709.34;;;28.23;44.18
6534;BME280;3300;42.698;23.332;2023-09-19T04:55:09;46721.09;;;28.23;44.18
6534;BME280;3300;42.698;23.332;2023-09-19T04:57:36;46715.22;;;28.23;44.13
6534;BME280;3300;42.698;23.332;2023-09-19T05:00:05;46699.56;;;28.23;44.12
6534;BME280;3300;42.698;23.332;2023-09-19T05:02:38;46701.50;;;28.23;44.40
6534;BME280;3300;42.698;23.332;2023-09-19T05:05:06;46711.31;;;28.23;44.23
6534;BME280;3300;42.698;23.332;2023-09-19T05:07:33;46705.44;;;28.23;44.13
6534;BME280;3300;42.698;23.332;2023-09-19T05:10:01;46721.09;;;28.23;44.11
6534;BME280;3300;42.698;23.332;2023-09-19T05:12:33;46701.50;;;28.23;44.21
6534;BME280;3300;42.698;23.332;2023-09-19T05:15:01;46752.41;;;28.23;44.13
6534;BME280;3300;42.698;23.332;2023-09-19T05:17:28;46691.72;;;28.23;44.18
6534;BME280;3300;42.698;23.332;2023-09-19T05:19:55;46687.81;;;28.23;44.21
6534;BME280;3300;42.698;23.332;2023-09-19T05:22:22;46709.34;;;28.23;44.17
6534;BME280;3300;42.698;23.332;2023-09-19T05:24:50;46715.22;;;28.23;44.09
6534;BME280;3300;42.698;23.332;2023-09-19T05:27:18;46685.84;;;28.23;44.15
6534;BME280;3300;42.698;23.332;2023-09-19T05:29:48;46728.91;;;28.23;44.10
6534;BME280;3300;42.698;23.332;2023-09-19T05:32:16;46713.25;;;28.23;43.98
6534;BME280;3300;42.698;23.332;2023-09-19T05:34:45;46691.72;;;28.23;44.10
6534;BME280;3300;42.698;23.332;2023-09-19T05:37:12;46713.25;;;28.23;44.09
6534;BME280;3300;42.698;23.332;2023-09-19T05:39:41;46703.47;;;28.23;44.14
6534;BME280;3300;42.698;23.332;2023-09-19T05:42:08;46711.31;;;28.23;44.18
6534;BME280;3300;42.698;23.332;2023-09-19T05:44:35;46713.25;;;28.23;44.13
6534;BME280;3300;42.698;23.332;2023-09-19T05:47:04;46693.69;;;28.23;44.21
6534;BME280;3300;42.698;23.332;2023-09-19T05:49:31;46719.13;;;28.23;44.11
6534;BME280;3300;42.698;23.332;2023-09-19T05:51:58;46736.75;;;28.23;44.15
6534;BME280;3300;42.698;23.332;2023-09-19T05:54:26;46711.31;;;28.23;44.12
6534;BME280;3300;42.698;23.332;2023-09-19T05:56:53;46709.34;;;28.23;44.11
6534;BME280;3300;42.698;23.332;2023-09-19T05:59:20;46725.00;;;28.23;44.14
6534;BME280;3300;42.698;23.332;2023-09-19T06:01:48;46715.22;;;28.23;44.06
6534;BME280;3300;42.698;23.332;2023-09-19T06:04:16;46705.44;;;28.23;44.09
6534;BME280;3300;42.698;23.332;2023-09-19T06:06:44;46719.13;;;28.23;44.07
6534;BME280;3300;42.698;23.332;2023-09-19T06:09:14;46709.34;;;28.23;44.04
6534;BME280;3300;42.698;23.332;2023-09-19T06:11:41;46705.44;;;28.23;44.04
6534;BME280;3300;42.698;23.332;2023-09-19T06:14:08;46709.34;;;28.23;44.10
6534;BME280;3300;42.698;23.332;2023-09-19T06:16:36;46697.59;;;28.23;44.08
6534;BME280;3300;42.698;23.332;2023-09-19T06:19:03;46713.25;;;28.23;44.15
6534;BME280;3300;42.698;23.332;2023-09-19T06:21:33;46732.81;;;28.23;44.06
6534;BME280;3300;42.698;23.332;2023-09-19T06:24:00;46705.44;;;28.23;44.18
6534;BME280;3300;42.698;23.332;2023-09-19T06:26:27;46721.09;;;28.23;44.32
6534;BME280;3300;42.698;23.332;2023-09-19T06:28:54;46728.91;;;28.23;44.47
6534;BME280;3300;42.698;23.332;2023-09-19T06:31:21;46697.59;;;28.23;44.50
6534;BME280;3300;42.698;23.332;2023-09-19T06:33:51;46705.44;;;28.23;44.55
6534;BME280;3300;42.698;23.332;2023-09-19T06:36:18;46719.13;;;28.23;44.53
6534;BME280;3300;42.698;23.332;2023-09-19T06:38:47;46689.78;;;28.23;44.70
6534;BME280;3300;42.698;23.332;2023-09-19T06:41:14;46713.25;;;28.23;44.78
6534;BME280;3300;42.698;23.332;2023-09-19T06:43:42;46699.56;;;28.23;44.71
6534;BME280;3300;42.698;23.332;2023-09-19T06:46:09;46736.75;;;28.23;44.71
6534;BME280;3300;42.698;23.332;2023-09-19T06:48:38;46713.25;;;28.23;44.89
6534;BME280;3300;42.698;23.332;2023-09-19T06:51:05;46746.53;;;28.23;45.21
6534;BME280;3300;42.698;23.332;2023-09-19T06:53:33;46717.16;;;28.23;45.21
6534;BME280;3300;42.698;23.332;2023-09-19T06:56:02;46689.78;;;28.23;45.03
6534;BME280;3300;42.698;23.332;2023-09-19T06:58:29;46725.00;;;28.23;44.86
6534;BME280;3300;42.698;23.332;2023-09-19T07:00:57;46705.44;;;28.23;44.90
6534;BME280;3300;42.698;23.332;2023-09-19T07:03:23;46709.34;;;28.23;44.86
6534;BME280;3300;42.698;23.332;2023-09-19T07:05:52;46693.69;;;28.23;44.54
6534;BME280;3300;42.698;23.332;2023-09-19T07:08:21;46721.09;;;28.23;44.38
6534;BME280;3300;42.698;23.332;2023-09-19T07:10:48;46715.22;;;28.23;44.23
6534;BME280;3300;42.698;23.332;2023-09-19T07:13:17;46695.66;;;28.23;44.36
6534;BME280;3300;42.698;23.332;2023-09-19T07:15:44;46685.84;;;28.23;44.24
6534;BME280;3300;42.698;23.332;2023-09-19T07:18:13;46709.34;;;28.23;44.09
6534;BME280;3300;42.698;23.332;2023-09-19T07:20:42;46707.38;;;28.23;44.15
6534;BME280;3300;42.698;23.332;2023-09-19T07:23:14;46691.72;;;28.23;44.11
6534;BME280;3300;42.698;23.332;2023-09-19T07:25:41;46713.25;;;28.23;44.11
6534;BME280;3300;42.698;23.332;2023-09-19T07:28:08;46674.13;;;28.23;44.08
6534;BME280;3300;42.698;23.332;2023-09-19T07:30:37;46730.88;;;28.23;44.12
6534;BME280;3300;42.698;23.332;2023-09-19T07:33:05;46725.00;;;28.23;44.09
6534;BME280;3300;42.698;23.332;2023-09-19T07:35:32;46740.66;;;28.23;43.87
6534;BME280;3300;42.698;23.332;2023-09-19T07:37:59;46695.66;;;28.23;44.19
6534;BME280;3300;42.698;23.332;2023-09-19T07:40:28;46701.50;;;28.23;44.30
6534;BME280;3300;42.698;23.332;2023-09-19T07:42:55;46685.84;;;28.23;44.32
6534;BME280;3300;42.698;23.332;2023-09-19T07:45:22;46723.03;;;28.23;44.20
6534;BME280;3300;42.698;23.332;2023-09-19T07:47:52;46713.25;;;28.23;44.04
6534;BME280;3300;42.698;23.332;2023-09-19T07:50:19;46709.34;;;28.23;44.14
6534;BME280;3300;42.698;23.332;2023-09-19T07:52:47;46681.94;;;28.23;44.09
6534;BME280;3300;42.698;23.332;2023-09-19T07:55:16;46697.59;;;28.23;44.09
6534;BME280;3300;42.698;23.332;2023-09-19T07:57:45;46717.16;;;28.23;44.17
6534;BME280;3300;42.698;23.332;2023-09-19T08:00:13;46705.44;;;28.23;44.10
6534;BME280;3300;42.698;23.332;2023-09-19T08:02:40;46701.50;;;28.23;44.24
6534;BME280;3300;42.698;23.332;2023-09-19T08:05:10;46721.09;;;28.23;43.98
6534;BME280;3300;42.698;23.332;2023-09-19T08:07:38;46736.75;;;28.23;44.01
6534;BME280;3300;42.698;23.332;2023-09-19T08:10:06;46709.34;;;28.23;43.96
6534;BME280;3300;42.698;23.332;2023-09-19T08:12:38;46701.50;;;28.23;44.16
6534;BME280;3300;42.698;23.332;2023-09-19T08:15:11;46721.09;;;28.23;44.18
6534;BME280;3300;42.698;23.332;2023-09-19T08:17:38;46717.16;;;28.23;44.33
6534;BME280;3300;42.698;23.332;2023-09-19T08:20:06;46721.09;;;28.23;44.23
6534;BME280;3300;42.698;23.332;2023-09-19T08:22:43;46689.78;;;28.23;44.29
6534;BME280;3300;42.698;23.332;2023-09-19T08:25:13;46689.78;;;28.23;44.36
6534;BME280;3300;42.698;23.332;2023-09-19T08:27:40;46728.91;;;28.23;44.38
6534;BME280;3300;42.698;23.332;2023-09-19T08:30:10;46725.00;;;28.23;44.41
6534;BME280;3300;42.698;23.332;2023-09-19T08:32:37;46713.25;;;28.23;44.41
6534;BME280;3300;42.698;23.332;2023-09-19T08:35:04;46709.34;;;28.23;44.34
6534;BME280;3300;42.698;23.332;2023-09-19T08:37:31;46701.50;;;28.23;44.33
6534;BME280;3300;42.698;23.332;2023-09-19T08:39:59;46742.63;;;28.23;44.15
6534;BME280;3300;42.698;23.332;2023-09-19T08:42:27;46715.22;;;28.23;44.29
6534;BME280;3300;42.698;23.332;2023-09-19T08:44:57;46732.81;;;28.23;44.25
6534;BME280;3300;42.698;23.332;2023-09-19T08:47:33;46748.47;;;28.23;44.12
6534;BME280;3300;42.698;23.332;2023-09-19T08:50:04;46725.00;;;28.23;44.48
6534;BME280;3300;42.698;23.332;2023-09-19T08:52:41;46685.84;;;28.23;44.22
6534;BME280;3300;42.698;23.332;2023-09-19T08:55:12;46691.72;;;28.23;44.20
6534;BME280;3300;42.698;23.332;2023-09-19T08:57:46;46713.25;;;28.23;44.22
6534;BME280;3300;42.698;23.332;2023-09-19T09:00:15;46701.50;;;28.23;44.22
6534;BME280;3300;42.698;23.332;2023-09-19T09:02:46;46709.34;;;28.23;44.20
6534;BME280;3300;42.698;23.332;2023-09-19T09:05:15;46689.78;;;28.23;44.20
6534;BME280;3300;42.698;23.332;2023-09-19T09:07:48;46732.81;;;28.23;43.94
6534;BME280;3300;42.698;23.332;2023-09-19T09:10:18;46740.66;;;28.23;44.18
6534;BME280;3300;42.698;23.332;2023-09-19T09:12:48;46703.47;;;28.23;44.13
6534;BME280;3300;42.698;23.332;2023-09-19T09:15:17;46709.34;;;28.23;44.17
6534;BME280;3300;42.698;23.332;2023-09-19T09:17:47;46717.16;;;28.23;44.13
6534;BME280;3300;42.698;23.332;2023-09-19T09:20:16;46699.56;;;28.23;44.06
6534;BME280;3300;42.698;23.332;2023-09-19T09:22:52;46725.00;;;28.23;44.11
6534;BME280;3300;42.698;23.332;2023-09-19T09:25:22;46719.13;;;28.23;44.17
6534;BME280;3300;42.698;23.332;2023-09-19T09:27:58;46725.00;;;28.23;44.15
6534;BME280;3300;42.698;23.332;2023-09-19T09:30:33;46732.81;;;28.23;44.09
6534;BME280;3300;42.698;23.332;2023-09-19T09:33:10;46713.25;;;28.23;44.05
6534;BME280;3300;42.698;23.332;2023-09-19T09:35:37;46705.44;;;28.23;44.06
6534;BME280;3300;42.698;23.332;2023-09-19T09:38:13;46695.66;;;28.23;44.06
6534;BME280;3300;42.698;23.332;2023-09-19T09:40:50;46730.88;;;28.23;43.95
6534;BME280;3300;42.698;23.332;2023-09-19T09:43:26;46693.69;;;28.23;43.79
6534;BME280;3300;42.698;23.332;2023-09-19T09:46:07;46699.56;;;28.23;44.09
6534;BME280;3300;42.698;23.332;2023-09-19T09:48:59;46717.16;;;28.23;44.12
6534;BME280;3300;42.698;23.332;2023-09-19T09:51:47;46705.44;;;28.23;43.99
6534;BME280;3300;42.698;23.332;2023-09-19T09:54:23;46693.69;;;28.23;44.01
6534;BME280;3300;42.698;23.332;2023-09-19T09:56:55;46725.00;;;28.23;44.07
6534;BME280;3300;42.698;23.332;2023-09-19T09:59:48;46705.44;;;28.23;43.97
6534;BME280;3300;42.698;23.332;2023-09-19T10:02:20;46681.94;;;28.23;44.07
6534;BME280;3300;42.698;23.332;2023-09-19T10:04:51;46693.69;;;28.23;43.95
6534;BME280;3300;42.698;23.332;2023-09-19T10:07:29;46709.34;;;28.23;43.88
6534;BME280;3300;42.698;23.332;2023-09-19T10:10:02;46717.16;;;28.23;44.02
6534;BME280;3300;42.698;23.332;2023-09-19T10:12:44;46705.44;;;28.23;44.04
6534;BME280;3300;42.698;23.332;2023-09-19T10:15:15;46705.44;;;28.23;43.99
6534;BME280;3300;42.698;23.332;2023-09-19T10:17:43;46693.69;;;28.23;43.84
6534;BME280;3300;42.698;23.332;2023-09-19T10:20:15;46721.09;;;28.23;44.01
6534;BME280;3300;42.698;23.332;2023-09-19T10:23:00;46725.00;;;28.23;43.96
6534;BME280;3300;42.698;23.332;2023-09-19T10:25:28;46717.16;;;28.23;43.97
6534;BME280;3300;42.698;23.332;2023-09-19T10:27:57;46687.81;;;28.23;43.97
6534;BME280;3300;42.698;23.332;2023-09-19T10:30:29;46699.56;;;28.23;44.06
6534;BME280;3300;42.698;23.332;2023-09-19T10:33:00;46705.44;;;28.23;43.88
6534;BME280;3300;42.698;23.332;2023-09-19T10:35:28;46695.66;;;28.23;43.90
6534;BME280;3300;42.698;23.332;2023-09-19T10:37:57;46707.38;;;28.23;43.98
6534;BME280;3300;42.698;23.332;2023-09-19T10:40:27;46711.31;;;28.23;43.92
6534;BME280;3300;42.698;23.332;2023-09-19T10:43:02;46709.34;;;28.23;43.89
6534;BME280;3300;42.698;23.332;2023-09-19T10:45:33;46713.25;;;28.23;44.03
6534;BME280;3300;42.698;23.332;2023-09-19T10:48:01;46699.56;;;28.23;43.95
6534;BME280;3300;42.698;23.332;2023-09-19T10:50:31;46728.91;;;28.23;44.15
6534;BME280;3300;42.698;23.332;2023-09-19T10:53:03;46744.56;;;28.23;43.99
6534;BME280;3300;42.698;23.332;2023-09-19T10:55:34;46709.34;;;28.23;43.90
6534;BME280;3300;42.698;23.332;2023-09-19T10:58:04;46693.69;;;28.23;44.05
6534;BME280;3300;42.698;23.332;2023-09-19T11:00:53;46713.25;;;28.23;43.88
6534;BME280;3300;42.698;23.332;2023-09-19T11:03:21;46717.16;;;28.23;43.90
6534;BME280;3300;42.698;23.332;2023-09-19T11:06:08;46693.69;;;28.23;43.90
6534;BME280;3300;42.698;23.332;2023-09-19T11:09:01;46713.25;;;28.23;43.82
6534;BME280;3300;42.698;23.332;2023-09-19T11:11:50;46705.44;;;28.23;43.91
6534;BME280;3300;42.698;23.332;2023-09-19T11:14:38;46728.91;;;28.23;43.93
6534;BME280;3300;42.698;23.332;2023-09-19T11:17:29;46691.72;;;28.23;43.89
6534;BME280;3300;42.698;23.332;2023-09-19T11:20:19;46691.72;;;28.23;43.76
6534;BME280;3300;42.698;23.332;2023-09-19T11:23:19;46685.84;;;28.23;43.97
6534;BME280;3300;42.698;23.332;2023-09-19T11:25:51;46721.09;;;28.23;43.77
6534;BME280;3300;42.698;23.332;2023-09-19T11:28:35;46709.34;;;28.23;43.92
6534;BME280;3300;42.698;23.332;2023-09-19T11:34:43;46732.81;;;28.23;43.96
6534;BME280;3300;42.698;23.332;2023-09-19T11:40:45;46693.69;;;28.23;43.87
6534;BME280;3300;42.698;23.332;2023-09-19T11:43:32;46701.50;;;28.23;43.81
6534;BME280;3300;42.698;23.332;2023-09-19T11:46:06;46709.34;;;28.23;43.80
6534;BME280;3300;42.698;23.332;2023-09-19T11:48:33;46721.09;;;28.23;43.83
6534;BME280;3300;42.698;23.332;2023-09-19T11:51:18;46701.50;;;28.23;43.87
6534;BME280;3300;42.698;23.332;2023-09-19T11:53:48;46693.69;;;28.23;43.83
6534;BME280;3300;42.698;23.332;2023-09-19T11:56:16;46717.16;;;28.23;43.87
6534;BME280;3300;42.698;23.332;2023-09-19T11:58:44;46725.00;;;28.23;43.83
6534;BME280;3300;42.698;23.332;2023-09-19T12:01:13;46699.56;;;28.23;43.91
6534;BME280;3300;42.698;23.332;2023-09-19T12:03:46;46726.97;;;28.23;43.82
6534;BME280;3300;42.698;23.332;2023-09-19T12:06:15;46723.03;;;28.23;43.95
6534;BME280;3300;42.698;23.332;2023-09-19T12:08:44;46701.50;;;28.23;43.89
6534;BME280;3300;42.698;23.332;2023-09-19T12:11:14;46709.34;;;28.23;43.74
6534;BME280;3300;42.698;23.332;2023-09-19T12:13:43;46705.44;;;28.23;43.66
6534;BME280;3300;42.698;23.332;2023-09-19T12:16:15;46709.34;;;28.23;43.81
6534;BME280;3300;42.698;23.332;2023-09-19T12:18:42;46719.13;;;28.23;43.66
6534;BME280;3300;42.698;23.332;2023-09-19T12:21:26;46697.59;;;28.23;43.61
6534;BME280;3300;42.698;23.332;2023-09-19T12:24:03;46723.03;;;28.23;43.62
6534;BME280;3300;42.698;23.332;2023-09-19T12:26:38;46697.59;;;28.23;43.62
6534;BME280;3300;42.698;23.332;2023-09-19T12:29:11;46736.75;;;28.23;43.74
6534;BME280;3300;42.698;23.332;2023-09-19T12:31:56;46699.56;;;28.23;43.79
6534;BME280;3300;42.698;23.332;2023-09-19T12:34:24;46721.09;;;28.23;43.67
6534;BME280;3300;42.698;23.332;2023-09-19T12:37:07;46717.16;;;28.23;43.69
6534;BME280;3300;42.698;23.332;2023-09-19T12:39:44;46693.69;;;28.23;43.69
6534;BME280;3300;42.698;23.332;2023-09-19T12:42:15;46732.81;;;28.23;43.83
6534;BME280;3300;42.698;23.332;2023-09-19T12:44:42;46707.38;;;28.23;43.83
6534;BME280;3300;42.698;23.332;2023-09-19T12:47:14;46744.56;;;28.23;43.84
6534;BME280;3300;42.698;23.332;2023-09-19T12:50:10;46697.59;;;28.23;43.79
6534;BME280;3300;42.698;23.332;2023-09-19T12:52:45;46717.16;;;28.23;43.76
6534;BME280;3300;42.698;23.332;2023-09-19T12:55:27;46719.13;;;28.23;43.68
6534;BME280;3300;42.698;23.332;2023-09-19T12:58:07;46715.22;;;28.23;43.71
6534;BME280;3300;42.698;23.332;2023-09-19T13:00:36;46666.28;;;28.23;43.65
6534;BME280;3300;42.698;23.332;2023-09-19T13:03:11;46697.59;;;28.23;43.47
6534;BME280;3300;42.698;23.332;2023-09-19T13:05:51;46707.38;;;28.23;43.65
6534;BME280;3300;42.698;23.332;2023-09-19T13:08:20;46736.75;;;28.23;43.69
6534;BME280;3300;42.698;23.332;2023-09-19T13:11:06;46687.81;;;28.23;43.75
6534;BME280;3300;42.698;23.332;2023-09-19T13:13:36;46715.22;;;28.23;43.81
6534;BME280;3300;42.698;23.332;2023-09-19T13:16:03;46709.34;;;28.23;43.79
6534;BME280;3300;42.698;23.332;2023-09-19T13:18:42;46689.78;;;28.23;43.76
6534;BME280;3300;42.698;23.332;2023-09-19T13:21:11;46707.38;;;28.23;43.60
6534;BME280;3300;42.698;23.332;2023-09-19T13:23:42;46713.25;;;28.23;43.75
6534;BME280;3300;42.698;23.332;2023-09-19T13:26:10;46703.47;;;28.23;43.67
6534;BME280;3300;42.698;23.332;2023-09-19T13:28:38;46705.44;;;28.23;43.79
6534;BME280;3300;42.698;23.332;2023-09-19T13:31:05;46730.88;;;28.23;43.82
6534;BME280;3300;42.698;23.332;2023-09-19T13:33:33;46697.59;;;28.23;43.83
6534;BME280;3300;42.698;23.332;2023-09-19T13:36:01;46695.66;;;28.23;43.79